createdAt,value
2022-11-24T00:00:24.723Z,6.47
2022-11-24T00:03:11.682Z,15.33
2022-11-24T00:06:07.400Z,9.10
2022-11-24T00:08:55.358Z,7.75
2022-11-24T00:11:42.181Z,7.22
2022-11-24T00:14:28.993Z,8.38
2022-11-24T00:17:15.777Z,7.80
2022-11-24T00:20:02.615Z,6.55
2022-11-24T00:22:49.389Z,7.07
2022-11-24T00:25:36.181Z,8.18
2022-11-24T00:28:23.003Z,7.13
2022-11-24T00:31:31.198Z,11.73
2022-11-24T00:34:18.079Z,8.18
2022-11-24T00:37:04.917Z,8.40
2022-11-24T00:39:51.688Z,7.60
2022-11-24T00:42:38.522Z,10.38
2022-11-24T00:45:25.324Z,11.37
2022-11-24T00:48:12.171Z,9.48
2022-11-24T00:51:10.225Z,10.60
2022-11-24T00:53:58.266Z,9.13
2022-11-24T00:56:45.143Z,7.75
2022-11-24T00:59:32.606Z,8.07
2022-11-24T01:02:19.492Z,7.53
2022-11-24T01:05:06.675Z,8.27
2022-11-24T01:07:53.487Z,7.80
2022-11-24T01:10:40.340Z,9.73
2022-11-24T01:13:27.135Z,6.67
2022-11-24T01:16:22.408Z,6.68
2022-11-24T01:19:09.225Z,6.10
2022-11-24T01:21:56.034Z,5.18
2022-11-24T01:24:42.912Z,6.70
2022-11-24T01:27:29.698Z,5.30
2022-11-24T01:30:16.694Z,5.47
2022-11-24T01:33:03.539Z,13.65
2022-11-24T01:35:50.290Z,8.13
2022-11-24T01:38:37.102Z,7.32
2022-11-24T01:41:25.222Z,6.43
2022-11-24T01:44:27.231Z,6.18
2022-11-24T01:47:38.535Z,6.60
2022-11-24T01:50:25.773Z,6.25
2022-11-24T01:53:14.381Z,6.50
2022-11-24T01:56:01.574Z,6.67
2022-11-24T01:58:51.251Z,9.25
2022-11-24T02:01:38.191Z,15.43
2022-11-24T02:04:30.652Z,8.85
2022-11-24T02:07:18.614Z,11.68
2022-11-24T02:10:16.151Z,11.70
2022-11-24T02:13:04.162Z,13.88
2022-11-24T02:15:53.097Z,10.82
2022-11-24T02:18:41.646Z,10.05
2022-11-24T02:21:28.462Z,10.18
2022-11-24T02:24:40.132Z,10.90
2022-11-24T02:27:27.090Z,8.32
2022-11-24T02:30:13.847Z,7.88
2022-11-24T02:33:01.034Z,4.10
2022-11-24T02:35:48.141Z,8.20
2022-11-24T02:38:35.937Z,29.53
2022-11-24T02:41:25.495Z,6.82
2022-11-24T02:44:16.355Z,7.45
2022-11-24T02:47:05.574Z,19.42
2022-11-24T02:49:52.438Z,181.90
2022-11-24T02:52:39.434Z,106.82
2022-11-24T02:55:26.576Z,25.80
2022-11-24T02:58:14.887Z,20.35
2022-11-24T03:01:01.656Z,46.42
2022-11-24T03:03:48.528Z,38.33
2022-11-24T03:06:35.291Z,48.80
2022-11-24T03:09:22.056Z,82.65
2022-11-24T03:12:08.855Z,22.10
2022-11-24T03:14:55.711Z,26.15
2022-11-24T03:17:42.792Z,6.80
2022-11-24T03:20:30.039Z,5.53
2022-11-24T03:23:16.864Z,6.68
2022-11-24T03:26:12.246Z,40.20
2022-11-24T03:28:59.004Z,12.27
2022-11-24T03:31:45.860Z,6.72
2022-11-24T03:34:33.022Z,5.20
2022-11-24T03:37:19.975Z,8.73
2022-11-24T03:40:07.196Z,6.80
2022-11-24T03:42:53.956Z,4.25
2022-11-24T03:45:47.810Z,6.18
2022-11-24T03:48:34.676Z,13.60
2022-11-24T03:51:21.426Z,9.30
2022-11-24T03:54:08.281Z,9.32
2022-11-24T03:56:55.112Z,8.95
2022-11-24T03:59:42.213Z,8.95
2022-11-24T04:02:29.068Z,7.23
2022-11-24T04:05:16.054Z,7.50
2022-11-24T04:08:05.406Z,4.40
2022-11-24T04:10:53.799Z,8.57
2022-11-24T04:13:40.542Z,9.13
2022-11-24T04:16:27.489Z,12.60
2022-11-24T04:19:14.599Z,10.23
2022-11-24T04:22:01.444Z,8.73
2022-11-24T04:24:48.199Z,7.30
2022-11-24T04:27:36.345Z,10.07
2022-11-24T04:30:24.584Z,8.70
2022-11-24T04:33:12.316Z,7.63
2022-11-24T04:35:59.153Z,7.20
2022-11-24T04:39:23.122Z,9.77
2022-11-24T04:41:52.809Z,7.82
2022-11-24T04:44:39.578Z,8.20
2022-11-24T04:47:27.452Z,8.88
2022-11-24T04:50:14.224Z,10.43
2022-11-24T04:53:00.984Z,9.20
2022-11-24T04:55:47.742Z,8.55
2022-11-24T04:58:35.059Z,9.15
2022-11-24T05:01:21.870Z,10.05
2022-11-24T05:04:14.575Z,8.30
2022-11-24T05:07:01.352Z,8.43
2022-11-24T05:10:07.023Z,10.15
2022-11-24T05:12:56.167Z,10.50
2022-11-24T05:15:43.084Z,23.35
2022-11-24T05:18:30.022Z,12.45
2022-11-24T05:21:16.904Z,6.60
2022-11-24T05:24:03.991Z,8.63
2022-11-24T05:26:50.770Z,15.17
2022-11-24T05:29:37.535Z,11.82
2022-11-24T05:32:24.378Z,10.98
2022-11-24T05:35:11.769Z,14.30
2022-11-24T05:37:58.906Z,11.95
2022-11-24T05:40:45.778Z,11.70
2022-11-24T05:43:32.566Z,14.95
2022-11-24T05:46:19.445Z,13.77
2022-11-24T05:49:06.252Z,23.08
2022-11-24T05:51:53.020Z,21.33
2022-11-24T05:54:39.918Z,15.10
2022-11-24T05:57:26.757Z,23.17
2022-11-24T06:00:14.929Z,64.65
2022-11-24T06:03:02.340Z,38.47
2022-11-24T06:05:49.232Z,34.05
2022-11-24T06:08:36.234Z,28.57
2022-11-24T06:11:23.053Z,26.73
2022-11-24T06:14:11.442Z,24.33
2022-11-24T06:16:58.544Z,22.15
2022-11-24T06:19:47.899Z,14.30
2022-11-24T06:22:34.875Z,16.63
2022-11-24T06:25:21.747Z,53.20
2022-11-24T06:28:08.580Z,33.00
2022-11-24T06:30:55.381Z,23.40
2022-11-24T06:33:42.208Z,35.92
2022-11-24T06:36:29.006Z,36.40
2022-11-24T06:39:15.840Z,47.78
2022-11-24T06:42:02.689Z,37.65
2022-11-24T06:44:49.690Z,46.42
2022-11-24T06:47:37.019Z,77.63
2022-11-24T06:50:24.629Z,65.93
2022-11-24T06:53:13.694Z,46.65
2022-11-24T06:56:01.985Z,48.10
2022-11-24T06:58:52.201Z,20.67
2022-11-24T07:01:39.069Z,16.00
2022-11-24T07:04:25.904Z,18.73
2022-11-24T07:07:12.839Z,13.07
2022-11-24T07:09:59.857Z,16.88
2022-11-24T07:12:46.776Z,12.98
2022-11-24T07:15:33.907Z,14.93
2022-11-24T07:18:20.691Z,20.63
2022-11-24T07:21:07.478Z,16.42
2022-11-24T07:23:56.097Z,16.88
2022-11-24T07:26:42.932Z,14.23
2022-11-24T07:29:29.723Z,14.63
2022-11-24T07:32:16.488Z,11.50
2022-11-24T07:35:03.621Z,17.02
2022-11-24T07:37:50.627Z,12.55
2022-11-24T07:40:37.454Z,21.85
2022-11-24T07:43:24.221Z,15.45
2022-11-24T07:46:14.036Z,20.50
2022-11-24T07:49:00.862Z,17.88
2022-11-24T07:51:47.656Z,13.02
2022-11-24T07:54:34.730Z,12.40
2022-11-24T07:57:21.803Z,10.00
2022-11-24T08:00:09.353Z,16.60
2022-11-24T08:02:56.280Z,10.98
2022-11-24T08:06:07.805Z,16.08
2022-11-24T08:08:49.846Z,12.07
2022-11-24T08:11:36.747Z,10.52
2022-11-24T08:14:23.772Z,8.40
2022-11-24T08:17:10.641Z,6.63
2022-11-24T08:19:57.548Z,9.98
2022-11-24T08:22:44.706Z,7.35
2022-11-24T08:25:32.764Z,9.18
2022-11-24T08:28:19.782Z,7.63
2022-11-24T08:31:14.919Z,8.40
2022-11-24T08:34:03.536Z,4.82
2022-11-24T08:36:51.689Z,7.10
2022-11-24T08:39:38.464Z,4.68
2022-11-24T08:42:25.290Z,6.77
2022-11-24T08:45:20.797Z,6.25
2022-11-24T08:48:08.879Z,4.90
2022-11-24T08:50:56.785Z,3.80
2022-11-24T08:53:44.010Z,4.05
2022-11-24T08:56:32.822Z,4.00
2022-11-24T08:59:19.652Z,3.83
2022-11-24T09:02:06.880Z,6.20
2022-11-24T09:04:53.770Z,5.03
2022-11-24T09:07:40.609Z,3.70
2022-11-24T09:10:27.488Z,3.20
2022-11-24T09:13:14.494Z,6.72
2022-11-24T09:16:06.358Z,3.20
2022-11-24T09:19:11.324Z,3.38
2022-11-24T09:21:58.176Z,4.28
2022-11-24T09:24:45.225Z,3.80
2022-11-24T09:27:32.479Z,3.47
2022-11-24T09:30:20.341Z,5.10
2022-11-24T09:33:07.102Z,4.00
2022-11-24T09:35:53.881Z,3.28
2022-11-24T09:38:41.153Z,2.90
2022-11-24T09:41:50.206Z,3.63
2022-11-24T09:44:36.984Z,3.63
2022-11-24T09:47:45.477Z,3.95
2022-11-24T09:50:35.906Z,6.63
2022-11-24T09:53:34.185Z,3.87
2022-11-24T09:56:23.465Z,3.65
2022-11-24T09:59:18.328Z,4.13
2022-11-24T10:02:12.003Z,3.63
2022-11-24T10:04:59.157Z,5.13
2022-11-24T10:08:14.551Z,4.57
2022-11-24T10:11:06.235Z,6.68
2022-11-24T10:14:05.986Z,4.60
2022-11-24T10:16:59.847Z,3.22
2022-11-24T10:20:19.121Z,3.33
2022-11-24T10:23:39.474Z,3.40
2022-11-24T10:27:09.926Z,3.13
2022-11-24T10:29:57.199Z,3.42
2022-11-24T10:32:47.585Z,3.08
2022-11-24T10:35:48.260Z,3.40
2022-11-24T10:38:43.786Z,8.20
2022-11-24T10:41:43.967Z,4.13
2022-11-24T10:44:30.839Z,3.70
2022-11-24T10:47:22.826Z,6.20
2022-11-24T10:50:32.578Z,4.35
2022-11-24T10:53:24.624Z,3.07
2022-11-24T10:56:11.572Z,2.95
2022-11-24T10:59:20.580Z,2.92
2022-11-24T11:02:32.619Z,3.75
2022-11-24T11:05:43.609Z,3.95
2022-11-24T11:08:32.432Z,3.27
2022-11-24T11:11:30.085Z,5.03
2022-11-24T11:14:35.746Z,5.45
2022-11-24T11:17:33.492Z,5.50
2022-11-24T11:20:32.398Z,3.13
2022-11-24T11:23:22.395Z,4.53
2022-11-24T11:26:34.335Z,6.80
2022-11-24T11:35:39.112Z,3.42
2022-11-24T11:38:33.756Z,5.07
2022-11-24T11:41:26.235Z,6.30
2022-11-24T11:44:43.826Z,5.13
2022-11-24T11:47:41.286Z,4.00
2022-11-24T11:54:04.215Z,3.17
2022-11-24T11:57:06.903Z,5.43
2022-11-24T12:00:18.127Z,5.05
2022-11-24T12:03:33.409Z,3.58
2022-11-24T12:06:38.603Z,5.45
2022-11-24T12:09:51.145Z,4.67
2022-11-24T12:12:46.476Z,7.22
2022-11-24T12:15:42.303Z,6.28
2022-11-24T12:18:57.529Z,6.20
2022-11-24T12:21:57.604Z,4.18
2022-11-24T12:24:53.384Z,5.80
2022-11-24T12:27:53.843Z,5.57
2022-11-24T12:30:51.302Z,12.00
2022-11-24T12:34:01.148Z,3.90
2022-11-24T12:37:25.668Z,6.47
2022-11-24T12:40:22.314Z,13.53
2022-11-24T12:43:32.622Z,4.68
2022-11-24T12:46:41.241Z,5.00
2022-11-24T12:49:46.312Z,5.53
2022-11-24T12:52:37.939Z,5.07
2022-11-24T12:55:25.597Z,6.93
2022-11-24T12:58:18.314Z,6.07
2022-11-24T13:01:28.116Z,8.23
2022-11-24T13:04:34.779Z,5.18
2022-11-24T13:07:43.758Z,6.38
2022-11-24T13:10:56.162Z,4.47
2022-11-24T13:14:02.228Z,6.40
2022-11-24T13:20:22.076Z,3.88
2022-11-24T13:23:24.286Z,5.47
2022-11-24T13:26:16.122Z,5.13
2022-11-24T13:29:23.859Z,6.20
2022-11-24T13:32:11.914Z,4.53
2022-11-24T13:35:04.651Z,4.88
2022-11-24T13:37:52.762Z,3.92
2022-11-24T13:40:49.849Z,10.87
2022-11-24T13:44:16.076Z,5.00
2022-11-24T13:47:24.552Z,4.70
2022-11-24T13:50:21.587Z,6.90
2022-11-24T13:53:15.624Z,8.40
2022-11-24T13:56:17.346Z,5.60
2022-11-24T13:59:18.691Z,4.88
2022-11-24T14:02:22.932Z,5.35
2022-11-24T14:05:14.630Z,5.10
2022-11-24T14:08:01.983Z,5.97
2022-11-24T14:10:48.856Z,4.27
2022-11-24T14:13:35.758Z,5.47
2022-11-24T14:16:24.241Z,6.93
2022-11-24T14:19:11.347Z,5.40
2022-11-24T14:21:58.415Z,5.43
2022-11-24T14:24:51.445Z,7.43
2022-11-24T14:27:39.116Z,3.90
2022-11-24T14:30:26.296Z,5.55
2022-11-24T14:33:13.427Z,6.90
2022-11-24T14:36:00.653Z,5.75
2022-11-24T14:38:47.735Z,6.30
2022-11-24T14:41:34.561Z,7.70
2022-11-24T14:44:59.267Z,15.98
2022-11-24T14:47:46.170Z,15.18
2022-11-24T14:50:33.072Z,7.15
2022-11-24T14:53:26.169Z,10.10
2022-11-24T14:56:19.233Z,17.88
2022-11-24T14:59:22.263Z,9.27
2022-11-24T15:02:48.350Z,10.90
2022-11-24T15:05:56.815Z,6.97
2022-11-24T15:08:47.014Z,6.87
2022-11-24T15:11:35.102Z,6.60
2022-11-24T15:14:38.854Z,6.45
2022-11-24T15:17:28.753Z,6.45
2022-11-24T15:20:41.764Z,5.00
2022-11-24T15:23:29.775Z,6.40
2022-11-24T15:26:16.575Z,13.10
2022-11-24T15:29:03.382Z,11.57
2022-11-24T15:31:52.804Z,9.13
2022-11-24T15:34:39.899Z,7.38
2022-11-24T15:37:30.065Z,5.97
2022-11-24T15:40:21.509Z,7.03
2022-11-24T15:43:35.199Z,8.88
2022-11-24T15:46:22.197Z,5.28
2022-11-24T15:49:09.048Z,8.98
2022-11-24T15:51:55.932Z,5.90
2022-11-24T15:54:42.691Z,5.38
2022-11-24T15:57:29.668Z,4.78
2022-11-24T16:00:22.392Z,6.80
2022-11-24T16:03:44.511Z,4.93
2022-11-24T16:06:24.763Z,7.10
2022-11-24T16:09:16.624Z,10.70
2022-11-24T16:12:03.830Z,11.50
2022-11-24T16:14:50.761Z,12.98
2022-11-24T16:17:37.689Z,14.48
2022-11-24T16:20:25.033Z,11.00
2022-11-24T16:23:12.037Z,6.97
2022-11-24T16:25:58.946Z,8.57
2022-11-24T16:28:45.965Z,6.60
2022-11-24T16:31:33.251Z,7.18
2022-11-24T16:34:20.145Z,17.50
2022-11-24T16:37:07.011Z,9.60
2022-11-24T16:39:53.844Z,13.98
2022-11-24T16:42:40.757Z,24.30
2022-11-24T16:45:27.662Z,25.70
2022-11-24T16:48:14.487Z,24.83
2022-11-24T16:51:06.411Z,27.50
2022-11-24T16:53:58.467Z,26.20
2022-11-24T16:56:45.277Z,27.45
2022-11-24T16:59:32.168Z,24.05
2022-11-24T17:02:19.176Z,22.27
2022-11-24T17:05:06.479Z,17.65
2022-11-24T17:07:53.358Z,31.05
2022-11-24T17:10:40.191Z,33.22
2022-11-24T17:13:27.005Z,33.95
2022-11-24T17:16:16.009Z,29.93
2022-11-24T17:19:03.219Z,25.02
2022-11-24T17:21:50.100Z,26.95
2022-11-24T17:24:37.101Z,27.83
2022-11-24T17:27:24.149Z,32.83
2022-11-24T17:30:12.138Z,33.50
2022-11-24T17:32:58.998Z,40.40
2022-11-24T17:35:45.833Z,32.63
2022-11-24T17:38:32.745Z,38.95
2022-11-24T17:41:20.068Z,42.28
2022-11-24T17:44:08.675Z,42.00
2022-11-24T17:46:55.491Z,38.72
2022-11-24T17:49:42.374Z,33.80
2022-11-24T17:52:32.206Z,38.10
2022-11-24T17:55:18.986Z,37.22
2022-11-24T17:58:05.812Z,30.97
2022-11-24T18:00:53.464Z,35.50
2022-11-24T18:03:41.474Z,38.42
2022-11-24T18:06:28.819Z,33.55
2022-11-24T18:09:15.693Z,31.98
2022-11-24T18:12:02.759Z,25.57
2022-11-24T18:14:49.529Z,22.73
2022-11-24T18:17:36.283Z,18.45
2022-11-24T18:20:23.131Z,16.38
2022-11-24T18:23:09.915Z,18.50
2022-11-24T18:26:00.821Z,78.00
2022-11-24T18:28:47.744Z,40.42
2022-11-24T18:31:35.951Z,52.13
2022-11-24T18:34:24.753Z,40.83
2022-11-24T18:37:13.584Z,30.65
2022-11-24T18:40:00.474Z,44.57
2022-11-24T18:42:47.316Z,40.58
2022-11-24T18:45:34.188Z,50.47
2022-11-24T18:48:22.711Z,41.70
2022-11-24T18:51:14.444Z,33.70
2022-11-24T18:54:03.034Z,31.73
2022-11-24T18:56:49.879Z,28.30
2022-11-24T18:59:36.893Z,31.33
2022-11-24T19:02:23.864Z,23.00
2022-11-24T19:05:10.694Z,19.13
2022-11-24T19:07:57.571Z,23.87
2022-11-24T19:10:45.292Z,32.22
2022-11-24T19:13:32.185Z,23.25
2022-11-24T19:16:20.341Z,19.77
2022-11-24T19:19:08.636Z,23.85
2022-11-24T19:21:55.460Z,32.83
2022-11-24T19:24:42.641Z,28.92
2022-11-24T19:27:29.706Z,38.35
2022-11-24T19:30:17.199Z,35.03
2022-11-24T19:33:04.033Z,34.00
2022-11-24T19:36:10.683Z,37.83
2022-11-24T19:38:58.604Z,39.70
2022-11-24T19:41:45.515Z,42.85
2022-11-24T19:44:32.596Z,41.33
2022-11-24T19:47:19.560Z,38.15
2022-11-24T19:50:10.418Z,36.83
2022-11-24T19:52:57.500Z,50.72
2022-11-24T19:55:45.453Z,66.10
2022-11-24T19:58:32.740Z,60.33
2022-11-24T20:01:20.926Z,51.78
2022-11-24T20:04:10.388Z,58.17
2022-11-24T20:06:57.286Z,67.05
2022-11-24T20:09:44.144Z,72.30
2022-11-24T20:12:32.635Z,54.80
2022-11-24T20:15:20.755Z,59.78
2022-11-24T20:18:07.667Z,63.60
2022-11-24T20:20:54.540Z,60.75
2022-11-24T20:23:42.219Z,50.03
2022-11-24T20:26:32.016Z,58.85
2022-11-24T20:29:19.616Z,62.13
2022-11-24T20:32:06.518Z,53.30
2022-11-24T20:34:53.452Z,44.90
2022-11-24T20:37:40.291Z,35.58
2022-11-24T20:40:27.379Z,28.30
2022-11-24T20:43:14.775Z,26.73
2022-11-24T20:46:10.415Z,31.20
2022-11-24T20:48:58.337Z,56.08
2022-11-24T20:51:47.650Z,58.15
2022-11-24T20:54:35.040Z,54.58
2022-11-24T20:57:22.017Z,49.88
2022-11-24T21:00:09.319Z,55.30
2022-11-24T21:02:57.615Z,42.97
2022-11-24T21:05:44.417Z,42.63
2022-11-24T21:08:35.707Z,47.95
2022-11-24T21:11:23.751Z,56.45
2022-11-24T21:14:10.855Z,70.53
2022-11-24T21:16:57.788Z,51.75
2022-11-24T21:19:44.679Z,92.63
2022-11-24T21:22:31.517Z,182.10
2022-11-24T21:25:18.310Z,204.65
2022-11-24T21:28:05.249Z,157.87
2022-11-24T21:30:52.147Z,199.85
2022-11-24T21:33:44.816Z,94.18
2022-11-24T21:36:34.111Z,68.35
2022-11-24T21:39:20.996Z,123.93
2022-11-24T21:42:07.912Z,197.27
2022-11-24T21:44:54.821Z,225.77
2022-11-24T21:47:42.404Z,92.35
2022-11-24T21:50:29.247Z,126.30
2022-11-24T21:53:16.023Z,127.97
2022-11-24T21:56:05.689Z,75.03
2022-11-24T21:58:54.826Z,120.03
2022-11-24T22:01:41.765Z,62.78
2022-11-24T22:04:28.624Z,105.45
2022-11-24T22:07:15.482Z,53.08
2022-11-24T22:10:02.364Z,45.50
2022-11-24T22:12:49.153Z,65.80
2022-11-24T22:15:35.934Z,72.90
2022-11-24T22:18:22.745Z,130.10
2022-11-24T22:21:23.858Z,71.32
2022-11-24T22:24:10.907Z,26.23
2022-11-24T22:26:57.825Z,65.20
2022-11-24T22:29:44.685Z,107.68
2022-11-24T22:32:31.527Z,85.82
2022-11-24T22:35:18.356Z,44.17
2022-11-24T22:38:05.206Z,63.27
2022-11-24T22:40:52.591Z,43.95
2022-11-24T22:43:40.787Z,41.70
2022-11-24T22:46:29.947Z,34.30
2022-11-24T22:49:16.722Z,44.35
2022-11-24T22:52:03.573Z,96.93
2022-11-24T22:54:50.419Z,45.05
2022-11-24T22:57:37.238Z,49.83
2022-11-24T23:00:24.141Z,45.42
2022-11-24T23:03:11.009Z,117.55
2022-11-24T23:06:02.467Z,102.00
2022-11-24T23:08:50.450Z,37.55
2022-11-24T23:11:41.385Z,33.42
2022-11-24T23:14:28.812Z,49.75
2022-11-24T23:17:15.662Z,39.25
2022-11-24T23:20:02.569Z,50.77
2022-11-24T23:22:49.379Z,77.10
2022-11-24T23:25:36.215Z,63.55
2022-11-24T23:28:23.051Z,48.00
2022-11-24T23:31:12.578Z,47.70
2022-11-24T23:34:01.949Z,82.33
2022-11-24T23:36:48.754Z,52.08
2022-11-24T23:39:35.597Z,30.95
2022-11-24T23:42:22.519Z,67.43
2022-11-24T23:45:11.070Z,62.00
2022-11-24T23:47:57.966Z,40.73
2022-11-24T23:50:45.157Z,40.88
2022-11-24T23:53:33.258Z,32.90
2022-11-24T23:56:25.411Z,33.95
2022-11-24T23:59:12.488Z,59.13
